Airfield :
LOGIN :

Register | Disclaimer

   EN    FR    IT 

 










Legend :    VFR   Marginal VFR   IFR   Intensive IFR   Very Intensive IFR
Visi :
Ceiling :
>= 8 km
>= 3000ft
5 to 8 km
1000 to 3000 ft
1500m to 5 km
500 to 1000 ft
800 to 1500m
200 to 500 ft
< 800m
< 200 ft
Symbols :   Thunderstorms  Fog  Heavy snow  Heavy precipitations  Wind > 20 kt
SIGMETs :     Misc.  Thunderstorms  Icing  Turbulence  Mountain Waves  Volcanic Ashes







- Airport Elevation : 1363 ft


ETIC - Grafenwohr Army Air Field

CURRENT METAR :
  • 240855Z 00000KT 9999 CLR 29/15 A3012 RMK SLP176 T02940151 $

EXPIRED METARs :
  • 240755Z 14004KT 9999 CLR 27/14 A3012 RMK SLP176 WND DATA ESTMD T02700141 $
  • 240656Z AUTO 00000KT 9999 CLR 24/15 A3009 RMK AO2 SLP167 T02380150 $

TAF TAF ETIC
Valid from the 24 at 06:00 until the 25 at 12:00 UTC


240558Z 2406/2512 VRB06KT 9999 SKC QNH3003INS TX33/2415Z TN14/2504Z
No reported NOTAMs for that airfield.



MET'MAP, your aeronautical weather chart ! - Copyright ORBIFLY December 2007 - Disclaimer

ORBIFLY MET'MAP TEAM :

Programming & Development : Alexandra Zaïnal
Concept & Development : Baudouin d'Aumeries
Co-Development & Prog : Marc-Olivier Méhu
Technical & hardware support : Manuel Goepfert

Contact : metmap@orbifly.com




SOURCES & CREDITS :

   NOAA